createdAt,value
2022-12-23T00:01:00.549Z,16.13
2022-12-23T00:03:28.022Z,13.80
2022-12-23T00:05:55.227Z,9.88
2022-12-23T00:08:22.540Z,9.57
2022-12-23T00:10:50.114Z,10.00
2022-12-23T00:13:35.951Z,11.40
2022-12-23T00:16:03.878Z,10.73
2022-12-23T00:18:31.040Z,7.90
2022-12-23T00:21:08.072Z,8.50
2022-12-23T00:23:36.399Z,6.70
2022-12-23T00:26:03.618Z,5.40
2022-12-23T00:28:30.926Z,4.00
2022-12-23T00:31:02.105Z,4.28
2022-12-23T00:33:32.888Z,3.45
2022-12-23T00:36:00.099Z,3.70
2022-12-23T00:38:46.017Z,3.65
2022-12-23T00:41:32.736Z,4.80
2022-12-23T00:43:59.921Z,4.03
2022-12-23T00:46:27.243Z,3.70
2022-12-23T00:49:12.928Z,3.15
2022-12-23T00:51:40.083Z,3.80
2022-12-23T00:54:07.307Z,3.50
2022-12-23T00:56:34.483Z,4.15
2022-12-23T00:59:01.642Z,4.28
2022-12-23T01:01:47.770Z,3.45
2022-12-23T01:04:33.999Z,3.42
2022-12-23T01:07:01.312Z,3.27
2022-12-23T01:09:28.442Z,3.60
2022-12-23T01:11:55.625Z,3.88
2022-12-23T01:14:22.847Z,3.57
2022-12-23T01:16:50.079Z,5.20
2022-12-23T01:19:17.480Z,5.27
2022-12-23T01:21:44.619Z,6.97
2022-12-23T01:24:11.775Z,6.82
2022-12-23T01:26:38.949Z,8.80
2022-12-23T01:29:06.126Z,7.30
2022-12-23T01:31:33.416Z,3.97
2022-12-23T01:34:00.572Z,2.83
2022-12-23T01:36:27.736Z,2.90
2022-12-23T01:38:56.046Z,3.33
2022-12-23T01:41:46.418Z,2.40
2022-12-23T01:44:33.063Z,2.72
2022-12-23T01:47:00.204Z,4.30
2022-12-23T01:49:27.355Z,8.32
2022-12-23T01:51:54.523Z,8.55
2022-12-23T01:54:21.675Z,8.40
2022-12-23T01:56:48.830Z,6.00
2022-12-23T01:59:35.992Z,5.60
2022-12-23T02:02:21.975Z,4.30
2022-12-23T02:04:49.428Z,3.70
2022-12-23T02:07:35.069Z,4.20
2022-12-23T02:10:02.236Z,3.53
2022-12-23T02:12:35.334Z,3.50
2022-12-23T02:15:39.097Z,3.93
2022-12-23T02:18:24.596Z,3.80
2022-12-23T02:21:11.257Z,3.45
2022-12-23T02:23:50.103Z,5.07
2022-12-23T02:26:38.879Z,4.53
2022-12-23T02:29:12.174Z,5.00
2022-12-23T02:31:51.245Z,6.90
2022-12-23T02:34:27.375Z,10.60
2022-12-23T02:37:17.205Z,13.63
2022-12-23T02:39:44.354Z,11.37
2022-12-23T02:42:17.875Z,12.57
2022-12-23T02:44:49.366Z,11.87
2022-12-23T02:47:20.301Z,11.47
2022-12-23T02:49:54.759Z,12.90
2022-12-23T02:52:22.497Z,12.03
2022-12-23T02:54:51.289Z,13.13
2022-12-23T02:57:19.617Z,12.77
2022-12-23T02:59:47.470Z,12.50
2022-12-23T03:02:14.778Z,7.57
2022-12-23T03:04:42.438Z,9.10
2022-12-23T03:07:29.982Z,5.33
2022-12-23T03:10:09.183Z,3.57
2022-12-23T03:12:55.091Z,3.43
2022-12-23T03:15:34.502Z,3.60
2022-12-23T03:18:06.481Z,3.50
2022-12-23T03:20:52.532Z,4.73
2022-12-23T03:23:24.517Z,3.23
2022-12-23T03:25:59.051Z,3.20
2022-12-23T03:28:26.207Z,6.37
2022-12-23T03:30:53.718Z,9.07
2022-12-23T03:33:22.100Z,11.80
2022-12-23T03:35:53.792Z,14.80
2022-12-23T03:38:21.011Z,29.03
2022-12-23T03:40:49.322Z,30.80
2022-12-23T03:43:18.669Z,27.00
2022-12-23T03:45:47.850Z,20.35
2022-12-23T03:48:21.099Z,22.17
2022-12-23T03:50:48.550Z,22.17
2022-12-23T03:53:36.058Z,19.87
2022-12-23T03:56:04.832Z,18.97
2022-12-23T03:58:34.955Z,19.03
2022-12-23T04:01:13.745Z,19.73
2022-12-23T04:03:49.292Z,18.75
2022-12-23T04:06:16.851Z,17.03
2022-12-23T04:08:44.023Z,18.13
2022-12-23T04:11:11.169Z,18.80
2022-12-23T04:13:38.384Z,25.30
2022-12-23T04:16:05.835Z,31.03
2022-12-23T04:18:33.100Z,22.60
2022-12-23T04:21:00.323Z,21.17
2022-12-23T04:23:27.501Z,18.80
2022-12-23T04:25:54.708Z,18.50
2022-12-23T04:28:21.955Z,19.37
2022-12-23T04:30:49.088Z,21.73
2022-12-23T04:33:16.292Z,22.40
2022-12-23T04:35:43.490Z,25.13
2022-12-23T04:38:10.667Z,20.57
2022-12-23T04:40:37.825Z,26.27
2022-12-23T04:43:05.005Z,18.00
2022-12-23T04:45:32.826Z,26.63
2022-12-23T04:47:59.977Z,23.83
2022-12-23T04:50:27.171Z,18.17
2022-12-23T04:52:54.355Z,21.03
2022-12-23T04:55:21.581Z,19.60
2022-12-23T04:57:48.779Z,18.63
2022-12-23T05:00:16.156Z,24.40
2022-12-23T05:02:43.436Z,23.90
2022-12-23T05:05:10.661Z,21.23
2022-12-23T05:07:37.838Z,17.87
2022-12-23T05:10:05.048Z,22.03
2022-12-23T05:12:32.245Z,20.13
2022-12-23T05:14:59.417Z,20.90
2022-12-23T05:17:26.619Z,19.87
2022-12-23T05:19:53.770Z,20.10
2022-12-23T05:22:20.892Z,22.90
2022-12-23T05:24:48.097Z,25.43
2022-12-23T05:27:15.345Z,26.97
2022-12-23T05:29:42.478Z,25.63
2022-12-23T05:32:09.713Z,25.87
2022-12-23T05:34:36.995Z,26.77
2022-12-23T05:37:04.183Z,28.63
2022-12-23T05:39:31.379Z,26.57
2022-12-23T05:41:58.642Z,24.70
2022-12-23T05:44:25.809Z,28.50
2022-12-23T05:46:53.018Z,29.40
2022-12-23T05:49:20.278Z,33.97
2022-12-23T05:51:47.480Z,31.43
2022-12-23T05:54:14.660Z,37.33
2022-12-23T05:56:41.857Z,25.43
2022-12-23T05:59:09.337Z,26.10
2022-12-23T06:01:36.627Z,29.27
2022-12-23T06:04:04.030Z,33.67
2022-12-23T06:06:31.325Z,31.37
2022-12-23T06:09:00.170Z,31.27
2022-12-23T06:11:27.565Z,28.97
2022-12-23T06:13:54.783Z,32.53
2022-12-23T06:16:22.216Z,32.77
2022-12-23T06:18:49.419Z,33.47
2022-12-23T06:21:16.618Z,32.33
2022-12-23T06:23:43.819Z,35.10
2022-12-23T06:26:10.993Z,27.00
2022-12-23T06:28:38.128Z,35.23
2022-12-23T06:31:05.509Z,34.47
2022-12-23T06:33:32.691Z,29.53
2022-12-23T06:35:59.859Z,31.17
2022-12-23T06:38:27.102Z,23.40
2022-12-23T06:40:54.272Z,17.97
2022-12-23T06:43:21.774Z,16.23
2022-12-23T06:45:49.665Z,19.23
2022-12-23T06:48:17.030Z,24.87
2022-12-23T06:50:44.314Z,22.63
2022-12-23T06:53:11.483Z,22.07
2022-12-23T06:55:38.666Z,25.80
2022-12-23T06:58:05.974Z,25.73
2022-12-23T07:00:33.833Z,25.43
2022-12-23T07:03:01.223Z,31.47
2022-12-23T07:05:34.933Z,33.23
2022-12-23T07:08:04.054Z,35.87
2022-12-23T07:10:31.181Z,34.27
2022-12-23T07:12:58.352Z,36.00
2022-12-23T07:15:25.554Z,35.60
2022-12-23T07:17:52.676Z,34.30
2022-12-23T07:20:20.003Z,35.77
2022-12-23T07:22:47.154Z,35.13
2022-12-23T07:25:14.314Z,38.87
2022-12-23T07:27:41.474Z,42.10
2022-12-23T07:30:08.974Z,37.33
2022-12-23T07:32:36.096Z,39.63
2022-12-23T07:35:03.252Z,44.03
2022-12-23T07:37:30.465Z,50.00
2022-12-23T07:39:57.650Z,46.27
2022-12-23T07:42:44.271Z,46.13
2022-12-23T07:45:12.102Z,42.50
2022-12-23T07:47:39.310Z,46.00
2022-12-23T07:50:06.829Z,47.77
2022-12-23T07:52:34.037Z,53.77
2022-12-23T07:55:01.181Z,56.30
2022-12-23T07:57:29.353Z,61.63
2022-12-23T07:59:57.160Z,55.43
2022-12-23T08:02:25.363Z,61.57
2022-12-23T08:04:52.886Z,55.57
2022-12-23T08:07:20.078Z,27.87
2022-12-23T08:09:47.198Z,8.00
2022-12-23T08:12:14.354Z,4.33
2022-12-23T08:14:41.507Z,4.17
2022-12-23T08:17:08.935Z,5.10
2022-12-23T08:19:36.174Z,5.73
2022-12-23T08:22:03.393Z,5.30
2022-12-23T08:24:30.542Z,5.83
2022-12-23T08:26:58.232Z,6.20
2022-12-23T08:29:25.394Z,5.07
2022-12-23T08:31:54.134Z,5.60
2022-12-23T08:34:21.314Z,5.77
2022-12-23T08:36:48.530Z,5.30
2022-12-23T08:39:15.653Z,6.70
2022-12-23T08:41:44.530Z,4.50
2022-12-23T08:44:11.776Z,4.80
2022-12-23T08:46:39.124Z,4.40
2022-12-23T08:49:06.474Z,4.70
2022-12-23T08:51:33.708Z,4.57
2022-12-23T08:54:01.648Z,12.73
2022-12-23T08:56:30.098Z,16.63
2022-12-23T08:58:57.316Z,34.88
2022-12-23T09:01:25.329Z,33.78
2022-12-23T09:03:52.730Z,35.00
2022-12-23T09:06:26.473Z,32.13
2022-12-23T09:08:56.073Z,29.48
2022-12-23T09:11:23.789Z,25.75
2022-12-23T09:13:50.923Z,26.67
2022-12-23T09:16:18.080Z,23.33
2022-12-23T09:18:45.295Z,23.52
2022-12-23T09:21:14.098Z,24.27
2022-12-23T09:23:41.356Z,27.33
2022-12-23T09:26:08.822Z,28.63
2022-12-23T09:28:36.019Z,34.40
2022-12-23T09:31:09.597Z,36.78
2022-12-23T09:33:36.954Z,34.78
2022-12-23T09:36:04.171Z,38.22
2022-12-23T09:38:31.383Z,38.53
2022-12-23T09:41:17.264Z,32.05
2022-12-23T09:43:48.368Z,43.28
2022-12-23T09:46:19.858Z,33.50
2022-12-23T09:48:51.718Z,35.17
2022-12-23T09:51:19.241Z,39.63
2022-12-23T09:53:57.229Z,29.55
2022-12-23T09:57:02.992Z,25.38
2022-12-23T09:59:48.250Z,22.55
2022-12-23T10:02:27.449Z,20.00
2022-12-23T10:05:02.850Z,20.83
2022-12-23T10:07:38.079Z,22.90
2022-12-23T10:10:25.565Z,22.52
2022-12-23T10:12:53.045Z,21.60
2022-12-23T10:15:31.220Z,20.27
2022-12-23T10:17:59.994Z,14.32
2022-12-23T10:20:38.413Z,38.50
2022-12-23T10:23:06.315Z,35.15
2022-12-23T10:25:34.389Z,43.47
2022-12-23T10:28:01.573Z,31.63
2022-12-23T10:33:19.689Z,42.40
2022-12-23T10:35:53.699Z,50.72
2022-12-23T10:38:33.078Z,14.40
2022-12-23T10:41:07.077Z,13.05
2022-12-23T10:43:48.181Z,9.48
2022-12-23T10:46:29.200Z,9.88
2022-12-23T10:49:02.593Z,8.38
2022-12-23T10:51:31.324Z,8.23
2022-12-23T10:54:03.273Z,7.05
2022-12-23T10:56:30.830Z,7.20
2022-12-23T10:58:58.737Z,7.15
2022-12-23T11:01:27.547Z,6.60
2022-12-23T11:04:21.630Z,6.45
2022-12-23T11:07:10.603Z,6.40
2022-12-23T11:09:39.079Z,5.95
2022-12-23T11:12:07.118Z,10.95
2022-12-23T11:14:50.591Z,7.65
2022-12-23T11:17:24.077Z,7.55
2022-12-23T11:20:07.868Z,8.80
2022-12-23T11:22:35.042Z,11.00
2022-12-23T11:25:31.717Z,26.67
2022-12-23T11:28:03.037Z,10.82
2022-12-23T11:30:30.654Z,14.23
2022-12-23T11:32:57.861Z,8.23
2022-12-23T11:35:31.884Z,6.82
2022-12-23T11:37:59.518Z,5.97
2022-12-23T11:40:27.737Z,7.97
2022-12-23T11:42:57.148Z,7.07
2022-12-23T11:45:25.038Z,10.00
2022-12-23T11:47:52.285Z,11.23
2022-12-23T11:50:29.814Z,12.30
2022-12-23T11:53:01.532Z,11.85
2022-12-23T11:55:29.890Z,10.55
2022-12-23T11:57:57.133Z,6.90
2022-12-23T12:00:28.882Z,7.75
2022-12-23T12:02:56.541Z,7.53
2022-12-23T12:05:26.386Z,12.43
2022-12-23T12:07:53.563Z,9.65
2022-12-23T12:10:27.457Z,8.65
2022-12-23T12:12:56.562Z,10.85
2022-12-23T12:15:26.285Z,11.75
2022-12-23T12:17:53.490Z,10.43
2022-12-23T12:20:23.759Z,8.55
2022-12-23T12:22:55.430Z,27.60
2022-12-23T12:25:23.706Z,35.17
2022-12-23T12:27:53.160Z,42.53
2022-12-23T12:30:20.813Z,43.17
2022-12-23T12:32:48.014Z,43.55
2022-12-23T12:35:20.568Z,45.17
2022-12-23T12:37:58.173Z,38.90
2022-12-23T12:40:26.009Z,55.30
2022-12-23T12:43:00.703Z,38.92
2022-12-23T12:45:29.573Z,45.35
2022-12-23T12:48:01.408Z,48.88
2022-12-23T12:50:34.825Z,50.95
2022-12-23T12:53:04.761Z,40.72
2022-12-23T12:55:36.058Z,41.80
2022-12-23T12:58:04.109Z,56.85
2022-12-23T13:00:31.364Z,60.13
2022-12-23T13:03:17.379Z,51.50
2022-12-23T13:06:04.797Z,31.67
2022-12-23T13:08:35.904Z,19.08
2022-12-23T13:11:06.520Z,23.90
2022-12-23T13:13:40.363Z,18.55
2022-12-23T13:16:11.618Z,12.82
2022-12-23T13:18:41.673Z,15.10
2022-12-23T13:21:12.297Z,20.20
2022-12-23T13:23:44.473Z,16.60
2022-12-23T13:26:18.275Z,9.27
2022-12-23T13:28:45.466Z,6.68
2022-12-23T13:31:34.079Z,8.90
2022-12-23T13:34:27.717Z,11.82
2022-12-23T13:37:00.704Z,13.27
2022-12-23T13:39:31.393Z,13.10
2022-12-23T13:42:04.830Z,15.50
2022-12-23T13:44:33.589Z,24.48
2022-12-23T13:47:03.902Z,13.80
2022-12-23T13:49:52.240Z,19.33
2022-12-23T13:52:25.462Z,20.35
2022-12-23T13:54:55.475Z,26.48
2022-12-23T13:57:34.779Z,24.88
2022-12-23T14:00:06.299Z,21.25
2022-12-23T14:02:36.706Z,19.88
2022-12-23T14:05:04.871Z,23.98
2022-12-23T14:07:32.822Z,23.75
2022-12-23T14:10:09.654Z,25.30
2022-12-23T14:12:37.622Z,26.63
2022-12-23T14:15:17.169Z,23.63
2022-12-23T14:18:02.701Z,23.40
2022-12-23T14:20:39.864Z,19.67
2022-12-23T14:23:09.826Z,29.43
2022-12-23T14:25:51.905Z,62.23
2022-12-23T14:28:22.356Z,33.13
2022-12-23T14:30:49.607Z,23.95
2022-12-23T14:33:19.617Z,18.02
2022-12-23T14:35:46.774Z,28.38
2022-12-23T14:38:16.923Z,27.88
2022-12-23T14:40:44.251Z,57.00
2022-12-23T14:43:23.594Z,24.43
2022-12-23T14:45:51.342Z,25.43
2022-12-23T14:48:37.109Z,24.07
2022-12-23T14:51:10.785Z,24.27
2022-12-23T14:53:38.642Z,30.38
2022-12-23T14:56:08.950Z,41.35
2022-12-23T14:58:40.453Z,18.77
2022-12-23T15:01:12.468Z,22.95
2022-12-23T15:03:53.282Z,21.00
2022-12-23T15:06:30.430Z,55.90
2022-12-23T15:08:57.721Z,36.22
2022-12-23T15:11:29.470Z,22.43
2022-12-23T15:13:57.352Z,28.47
2022-12-23T15:16:29.993Z,32.07
2022-12-23T15:18:58.205Z,35.50
2022-12-23T15:21:29.575Z,35.10
2022-12-23T15:23:56.768Z,45.37
2022-12-23T15:26:25.665Z,47.83
2022-12-23T15:28:52.913Z,52.07
2022-12-23T15:31:24.658Z,80.72
2022-12-23T15:34:02.974Z,107.35
2022-12-23T15:36:32.301Z,88.75
2022-12-23T15:39:00.433Z,80.63
2022-12-23T15:41:27.620Z,72.32
2022-12-23T15:43:57.367Z,70.70
2022-12-23T15:46:29.836Z,78.17
2022-12-23T15:48:57.710Z,80.00
2022-12-23T15:51:57.575Z,81.00
2022-12-23T15:54:19.128Z,71.57
2022-12-23T15:56:46.964Z,68.47
2022-12-23T15:59:17.168Z,80.93
2022-12-23T16:01:44.399Z,149.13
2022-12-23T16:04:17.703Z,127.53
2022-12-23T16:06:48.209Z,107.90
2022-12-23T16:09:18.844Z,114.87
2022-12-23T16:11:56.738Z,104.67
2022-12-23T16:14:25.978Z,88.13
2022-12-23T16:16:53.186Z,76.73
2022-12-23T16:19:39.097Z,79.37
2022-12-23T16:22:14.482Z,95.40
2022-12-23T16:24:46.154Z,105.03
2022-12-23T16:27:16.738Z,93.23
2022-12-23T16:29:44.046Z,83.63
2022-12-23T16:32:15.934Z,87.63
2022-12-23T16:34:43.586Z,78.93
2022-12-23T16:37:10.762Z,65.37
2022-12-23T16:39:37.968Z,40.33
2022-12-23T16:42:05.314Z,82.70
2022-12-23T16:44:32.445Z,75.17
2022-12-23T16:47:00.070Z,215.03
2022-12-23T16:49:33.145Z,114.00
2022-12-23T16:52:00.751Z,107.50
2022-12-23T16:54:28.156Z,96.10
2022-12-23T16:56:55.405Z,71.10
2022-12-23T16:59:22.617Z,72.90
2022-12-23T17:01:49.918Z,51.37
2022-12-23T17:04:17.157Z,56.10
2022-12-23T17:06:46.541Z,40.40
2022-12-23T17:09:13.882Z,32.40
2022-12-23T17:11:41.058Z,32.50
2022-12-23T17:14:15.472Z,36.33
2022-12-23T17:16:43.049Z,51.10
2022-12-23T17:19:10.338Z,49.13
2022-12-23T17:21:38.925Z,45.43
2022-12-23T17:24:11.959Z,48.03
2022-12-23T17:26:39.137Z,14.73
2022-12-23T17:29:06.378Z,11.40
2022-12-23T17:31:34.640Z,13.60
2022-12-23T17:34:02.244Z,76.40
2022-12-23T17:36:29.726Z,102.67
2022-12-23T17:38:56.988Z,68.30
2022-12-23T17:41:26.445Z,51.93
2022-12-23T17:43:53.640Z,45.90
2022-12-23T17:46:21.169Z,41.70
2022-12-23T17:48:48.436Z,45.40
2022-12-23T17:51:16.383Z,82.30
2022-12-23T17:53:43.755Z,108.07
2022-12-23T17:56:14.649Z,104.33
2022-12-23T17:58:42.216Z,70.37
2022-12-23T18:01:19.865Z,61.20
2022-12-23T18:03:47.226Z,75.53
2022-12-23T18:06:14.947Z,71.50
2022-12-23T18:08:42.250Z,81.50
2022-12-23T18:11:09.792Z,84.73
2022-12-23T18:13:37.009Z,166.17
2022-12-23T18:16:04.221Z,122.67
2022-12-23T18:18:43.484Z,164.03
2022-12-23T18:21:14.779Z,125.77
2022-12-23T18:23:42.376Z,109.93
2022-12-23T18:26:12.131Z,139.80
2022-12-23T18:28:39.307Z,74.60
2022-12-23T18:31:06.563Z,114.20
2022-12-23T18:33:35.472Z,139.03
2022-12-23T18:36:02.677Z,121.53
2022-12-23T18:38:29.881Z,141.53
2022-12-23T18:40:58.121Z,138.57
2022-12-23T18:43:25.690Z,92.57
2022-12-23T18:45:54.060Z,101.60
2022-12-23T18:48:21.686Z,107.17
2022-12-23T18:50:49.011Z,85.20
2022-12-23T18:53:24.681Z,177.63
2022-12-23T18:55:52.326Z,139.97
2022-12-23T18:58:19.525Z,162.53
2022-12-23T19:00:46.807Z,134.97
2022-12-23T19:03:27.432Z,160.10
2022-12-23T19:05:54.816Z,146.07
2022-12-23T19:08:26.697Z,225.47
2022-12-23T19:10:55.036Z,226.00
2022-12-23T19:13:22.229Z,174.63
2022-12-23T19:15:49.472Z,126.97
2022-12-23T19:18:17.255Z,148.87
2022-12-23T19:20:44.906Z,195.97
2022-12-23T19:23:12.110Z,205.50
2022-12-23T19:25:44.274Z,140.13
2022-12-23T19:28:14.886Z,136.80
2022-12-23T19:30:42.411Z,143.83
2022-12-23T19:33:09.811Z,124.60
2022-12-23T19:35:36.978Z,145.57
2022-12-23T19:38:04.557Z,126.63
2022-12-23T19:40:31.797Z,164.70
2022-12-23T19:42:59.011Z,190.23
2022-12-23T19:45:26.319Z,181.83
2022-12-23T19:47:53.936Z,161.73
2022-12-23T19:50:22.267Z,153.50
2022-12-23T19:52:52.657Z,166.87
2022-12-23T19:55:19.823Z,163.33
2022-12-23T19:57:46.938Z,153.10
2022-12-23T20:00:15.876Z,112.97
2022-12-23T20:02:43.201Z,124.47
2022-12-23T20:05:10.486Z,122.53
2022-12-23T20:07:37.776Z,134.90
2022-12-23T20:10:05.582Z,136.93
2022-12-23T20:12:32.713Z,193.47
2022-12-23T20:14:59.903Z,278.17
2022-12-23T20:17:27.124Z,215.98
2022-12-23T20:19:54.333Z,212.33
2022-12-23T20:22:21.498Z,217.40
2022-12-23T20:24:49.075Z,187.03
2022-12-23T20:27:18.334Z,201.43
2022-12-23T20:29:48.546Z,148.63
2022-12-23T20:32:15.676Z,139.13
2022-12-23T20:34:42.841Z,104.93
2022-12-23T20:37:11.694Z,111.50
2022-12-23T20:39:38.808Z,80.83
2022-12-23T20:42:06.016Z,91.80
2022-12-23T20:44:35.674Z,90.70
2022-12-23T20:47:03.233Z,80.00
2022-12-23T20:49:30.566Z,53.00
2022-12-23T20:51:57.839Z,38.27
2022-12-23T20:54:31.598Z,34.87
2022-12-23T20:57:00.214Z,37.30
2022-12-23T20:59:27.400Z,44.13
2022-12-23T21:01:54.923Z,68.57
2022-12-23T21:04:22.738Z,66.53
2022-12-23T21:06:50.049Z,86.57
2022-12-23T21:09:17.282Z,78.90
2022-12-23T21:11:45.084Z,57.40
2022-12-23T21:14:12.434Z,53.80
2022-12-23T21:16:39.750Z,105.10
2022-12-23T21:19:07.568Z,112.38
2022-12-23T21:21:34.845Z,144.87
2022-12-23T21:24:04.290Z,133.53
2022-12-23T21:26:32.680Z,120.10
2022-12-23T21:29:00.228Z,104.93
2022-12-23T21:31:27.576Z,109.40
2022-12-23T21:33:54.904Z,112.87
2022-12-23T21:36:25.055Z,98.90
2022-12-23T21:38:52.352Z,96.37
2022-12-23T21:41:23.166Z,96.17
2022-12-23T21:43:50.472Z,98.40
2022-12-23T21:46:18.559Z,88.53
2022-12-23T21:48:45.843Z,88.43
2022-12-23T21:51:13.101Z,102.87
2022-12-23T21:53:40.316Z,96.07
2022-12-23T21:56:08.801Z,99.73
2022-12-23T21:58:35.981Z,108.50
2022-12-23T22:01:18.917Z,103.57
2022-12-23T22:03:46.436Z,103.77
2022-12-23T22:06:14.844Z,107.70
2022-12-23T22:08:42.068Z,122.87
2022-12-23T22:11:16.253Z,101.03
2022-12-23T22:13:43.514Z,88.73
2022-12-23T22:16:14.565Z,82.40
2022-12-23T22:18:41.911Z,52.30
2022-12-23T22:21:10.013Z,52.37
2022-12-23T22:23:37.688Z,64.10
2022-12-23T22:26:04.907Z,61.83
2022-12-23T22:28:32.541Z,60.53
2022-12-23T22:31:03.529Z,58.30
2022-12-23T22:33:31.695Z,81.13
2022-12-23T22:35:58.903Z,75.60
2022-12-23T22:38:26.183Z,75.97
2022-12-23T22:40:53.471Z,91.03
2022-12-23T22:43:20.653Z,71.53
2022-12-23T22:45:47.927Z,68.07
2022-12-23T22:51:09.478Z,86.17
2022-12-23T22:53:36.823Z,83.27
2022-12-23T22:56:04.220Z,73.33
2022-12-23T22:58:31.630Z,97.97
2022-12-23T23:00:58.808Z,80.97
2022-12-23T23:03:26.379Z,61.90
2022-12-23T23:05:59.493Z,73.87
2022-12-23T23:08:26.786Z,67.20
2022-12-23T23:10:54.108Z,55.40
2022-12-23T23:13:21.304Z,50.27
2022-12-23T23:15:48.856Z,55.13
2022-12-23T23:18:16.130Z,43.27
2022-12-23T23:20:43.357Z,42.07
2022-12-23T23:23:10.564Z,51.67
2022-12-23T23:25:37.786Z,49.90
2022-12-23T23:28:05.178Z,46.87
2022-12-23T23:30:32.389Z,45.70
2022-12-23T23:32:59.659Z,47.37
2022-12-23T23:35:26.836Z,48.87
2022-12-23T23:37:54.002Z,64.37
2022-12-23T23:40:21.208Z,50.37
2022-12-23T23:42:50.838Z,41.83
2022-12-23T23:45:17.978Z,41.53
2022-12-23T23:47:45.244Z,42.10
2022-12-23T23:50:12.436Z,46.40
2022-12-23T23:52:39.583Z,43.87
2022-12-23T23:55:07.031Z,48.90
2022-12-23T23:57:34.261Z,37.70
